createdAt,value
2018-07-25T00:02:52.101Z,25.90
2018-07-25T00:07:55.466Z,25.80
2018-07-25T00:12:58.728Z,25.50
2018-07-25T00:18:01.985Z,25.20
2018-07-25T00:23:05.354Z,25.10
2018-07-25T00:28:08.763Z,24.70
2018-07-25T00:33:12.242Z,25.10
2018-07-25T00:38:15.546Z,25.30
2018-07-25T00:43:18.851Z,25.20
2018-07-25T00:48:22.133Z,24.90
2018-07-25T00:53:25.424Z,25.00
2018-07-25T00:58:28.687Z,25.30
2018-07-25T01:03:31.975Z,25.40
2018-07-25T01:08:35.490Z,25.30
2018-07-25T01:13:38.725Z,25.20
2018-07-25T01:18:42.017Z,25.20
2018-07-25T01:23:45.330Z,25.10
2018-07-25T01:28:48.624Z,25.00
2018-07-25T01:33:51.871Z,24.90
2018-07-25T01:38:55.189Z,25.10
2018-07-25T01:43:58.581Z,25.20
2018-07-25T01:49:01.818Z,25.00
2018-07-25T01:54:05.136Z,25.10
2018-07-25T01:59:08.404Z,25.20
2018-07-25T02:04:11.645Z,25.20
2018-07-25T02:09:14.894Z,25.20
2018-07-25T02:14:18.144Z,24.80
2018-07-25T02:19:21.431Z,24.70
2018-07-25T02:29:27.697Z,25.00
2018-07-25T02:34:31.004Z,25.00
2018-07-25T02:39:34.256Z,24.80
2018-07-25T02:44:37.502Z,24.80
2018-07-25T02:49:40.764Z,24.60
2018-07-25T02:54:44.026Z,24.50
2018-07-25T02:59:47.308Z,24.50
2018-07-25T03:04:50.592Z,24.40
2018-07-25T03:09:53.944Z,24.50
2018-07-25T03:14:57.190Z,24.60
2018-07-25T03:20:00.535Z,24.60
2018-07-25T03:25:03.874Z,24.60
2018-07-25T03:30:07.219Z,24.50
2018-07-25T03:35:10.614Z,24.20
2018-07-25T03:40:13.995Z,24.30
2018-07-25T03:45:17.283Z,24.10
2018-07-25T03:50:20.519Z,24.20
2018-07-25T03:55:23.766Z,24.10
2018-07-25T04:00:27.381Z,24.10
2018-07-25T04:05:30.630Z,24.00
2018-07-25T04:10:33.988Z,23.90
2018-07-25T04:15:37.310Z,24.00
2018-07-25T04:20:40.593Z,23.90
2018-07-25T04:25:43.874Z,23.80
2018-07-25T04:30:47.194Z,23.30
2018-07-25T04:35:50.525Z,23.50
2018-07-25T04:40:53.903Z,23.80
2018-07-25T04:45:57.218Z,24.30
2018-07-25T04:51:00.791Z,24.80
2018-07-25T04:56:04.121Z,24.70
2018-07-25T05:01:07.507Z,25.00
2018-07-25T05:06:10.903Z,25.00
2018-07-25T05:11:14.273Z,25.20
2018-07-25T05:16:17.586Z,25.50
2018-07-25T05:21:21.085Z,25.80
2018-07-25T05:26:24.467Z,26.00
2018-07-25T05:31:27.868Z,26.50
2018-07-25T05:36:31.194Z,27.00
2018-07-25T05:41:34.437Z,27.10
2018-07-25T05:46:37.995Z,26.70
2018-07-25T05:51:41.225Z,26.80
2018-07-25T05:56:44.501Z,27.10
2018-07-25T06:01:47.701Z,26.70
2018-07-25T06:06:50.947Z,26.80
2018-07-25T06:11:54.310Z,27.20
2018-07-25T06:16:57.675Z,27.50
2018-07-25T06:22:00.956Z,27.30
2018-07-25T06:27:04.197Z,27.80
2018-07-25T06:32:07.576Z,27.80
2018-07-25T06:37:10.847Z,27.60
2018-07-25T06:42:14.114Z,28.20
2018-07-25T06:47:17.355Z,28.20
2018-07-25T06:52:20.606Z,27.40
2018-07-25T06:57:24.020Z,27.90
2018-07-25T07:02:27.235Z,27.70
2018-07-25T07:07:30.467Z,28.00
2018-07-25T07:12:33.743Z,28.20
2018-07-25T07:17:37.002Z,28.00
2018-07-25T07:22:40.283Z,27.20
2018-07-25T07:27:43.524Z,28.40
2018-07-25T07:32:46.786Z,28.60
2018-07-25T07:37:50.137Z,28.00
2018-07-25T07:42:53.378Z,29.80
2018-07-25T07:47:56.661Z,28.30
2018-07-25T07:52:59.917Z,27.80
2018-07-25T07:58:03.302Z,28.60
2018-07-25T08:03:08.131Z,29.30
2018-07-25T08:08:11.404Z,29.90
2018-07-25T08:13:14.960Z,29.90
2018-07-25T08:18:18.239Z,29.70
2018-07-25T08:23:21.498Z,29.60
2018-07-25T08:33:27.877Z,29.10
2018-07-25T08:38:41.361Z,29.40
2018-07-25T08:43:44.706Z,29.10
2018-07-25T08:48:47.962Z,30.00
2018-07-25T08:53:51.190Z,30.10
2018-07-25T08:58:54.432Z,30.60
2018-07-25T09:03:57.833Z,29.10
2018-07-25T09:09:01.101Z,30.70
2018-07-25T09:14:04.706Z,30.80
2018-07-25T09:19:08.624Z,30.00
2018-07-25T09:24:11.886Z,31.20
2018-07-25T09:29:15.291Z,30.70
2018-07-25T09:34:18.609Z,30.90
2018-07-25T09:39:21.804Z,30.30
2018-07-25T09:44:25.938Z,31.10
2018-07-25T09:49:29.218Z,30.50
2018-07-25T09:54:32.611Z,30.60
2018-07-25T09:59:35.881Z,30.50
2018-07-25T10:04:39.129Z,31.30
2018-07-25T10:09:42.502Z,30.90
2018-07-25T10:14:45.798Z,31.50
2018-07-25T10:19:50.145Z,30.60
2018-07-25T10:24:53.541Z,30.90
2018-07-25T10:29:56.931Z,30.80
2018-07-25T10:35:00.298Z,31.50
2018-07-25T10:40:04.238Z,31.40
2018-07-25T10:45:08.931Z,31.60
2018-07-25T10:50:12.199Z,31.60
2018-07-25T10:55:15.569Z,32.30
2018-07-25T11:00:18.871Z,32.30
2018-07-25T11:05:22.247Z,32.80
2018-07-25T11:10:25.578Z,32.60
2018-07-25T11:15:29.030Z,32.90
2018-07-25T11:20:32.246Z,32.60
2018-07-25T11:25:35.503Z,32.40
2018-07-25T11:30:38.843Z,32.40
2018-07-25T11:35:42.098Z,31.90
2018-07-25T11:40:45.358Z,32.30
2018-07-25T11:45:49.709Z,32.60
2018-07-25T11:50:52.924Z,32.50
2018-07-25T11:55:56.247Z,33.40
2018-07-25T12:00:59.584Z,33.30
2018-07-25T12:06:03.007Z,32.80
2018-07-25T12:11:07.158Z,32.80
2018-07-25T12:16:10.521Z,33.10
2018-07-25T12:21:13.798Z,33.50
2018-07-25T12:31:20.825Z,33.50
2018-07-25T12:36:24.379Z,33.70
2018-07-25T12:41:27.676Z,33.60
2018-07-25T12:46:31.012Z,33.40
2018-07-25T12:51:34.251Z,33.40
2018-07-25T12:56:37.500Z,33.50
2018-07-25T13:01:41.020Z,33.00
2018-07-25T13:06:44.428Z,32.70
2018-07-25T13:11:49.694Z,33.10
2018-07-25T13:16:53.040Z,33.20
2018-07-25T13:21:56.289Z,33.50
2018-07-25T13:26:59.679Z,33.30
2018-07-25T13:32:03.173Z,33.30
2018-07-25T13:37:06.862Z,33.40
2018-07-25T13:42:10.097Z,33.60
2018-07-25T13:47:13.431Z,33.60
2018-07-25T13:52:16.782Z,34.30
2018-07-25T13:57:20.242Z,34.30
2018-07-25T14:02:57.883Z,33.90
2018-07-25T14:08:02.103Z,33.60
2018-07-25T14:13:05.465Z,33.70
2018-07-25T14:18:08.938Z,33.30
2018-07-25T14:23:12.317Z,33.80
2018-07-25T14:28:15.859Z,33.50
2018-07-25T14:33:19.126Z,33.50
2018-07-25T14:38:22.351Z,33.40
2018-07-25T14:43:25.679Z,33.40
2018-07-25T14:48:29.194Z,33.50
2018-07-25T14:53:32.484Z,33.30
2018-07-25T14:58:35.778Z,33.30
2018-07-25T15:03:39.181Z,33.10
2018-07-25T15:08:42.657Z,33.60
2018-07-25T15:13:47.078Z,33.10
2018-07-25T15:18:50.406Z,33.20
2018-07-25T15:23:57.027Z,33.60
2018-07-25T15:29:01.164Z,33.80
2018-07-25T15:34:04.511Z,34.20
2018-07-25T15:39:11.386Z,34.00
2018-07-25T15:44:15.165Z,33.60
2018-07-25T15:49:18.435Z,33.80
2018-07-25T15:54:21.678Z,33.90
2018-07-25T15:59:24.922Z,33.80
2018-07-25T16:04:28.279Z,33.50
2018-07-25T16:09:31.543Z,33.40
2018-07-25T16:14:34.796Z,33.30
2018-07-25T16:19:38.044Z,33.30
2018-07-25T16:24:41.300Z,33.40
2018-07-25T16:29:44.561Z,33.40
2018-07-25T16:34:48.468Z,33.20
2018-07-25T16:39:51.695Z,33.00
2018-07-25T16:44:54.948Z,33.00
2018-07-25T16:49:58.206Z,33.10
2018-07-25T16:55:01.535Z,33.10
2018-07-25T17:00:05.735Z,32.60
2018-07-25T17:05:08.987Z,32.20
2018-07-25T17:10:12.646Z,32.20
2018-07-25T17:15:15.907Z,32.10
2018-07-25T17:20:19.262Z,31.90
2018-07-25T17:25:23.863Z,31.70
2018-07-25T17:30:27.116Z,31.60
2018-07-25T17:35:30.386Z,31.50
2018-07-25T17:40:33.698Z,31.50
2018-07-25T17:45:36.929Z,31.30
2018-07-25T17:50:40.175Z,31.10
2018-07-25T17:55:43.395Z,31.00
2018-07-25T18:00:47.024Z,30.90
2018-07-25T18:05:50.280Z,30.90
2018-07-25T18:10:53.613Z,30.90
2018-07-25T18:15:56.926Z,30.70
2018-07-25T18:21:00.536Z,30.60
2018-07-25T18:26:03.794Z,30.50
2018-07-25T18:31:07.026Z,30.40
2018-07-25T18:36:10.379Z,30.40
2018-07-25T18:41:13.669Z,30.40
2018-07-25T18:46:17.106Z,30.40
2018-07-25T18:51:20.375Z,30.20
2018-07-25T18:56:23.613Z,30.10
2018-07-25T19:01:26.916Z,29.90
2018-07-25T19:06:30.315Z,29.70
2018-07-25T19:11:33.591Z,29.80
2018-07-25T19:16:37.008Z,30.20
2018-07-25T19:21:40.514Z,30.00
2018-07-25T19:26:43.795Z,30.10
2018-07-25T19:36:50.830Z,29.70
2018-07-25T19:41:54.264Z,29.70
2018-07-25T19:46:57.565Z,29.70
2018-07-25T19:52:01.381Z,29.60
2018-07-25T19:57:04.818Z,29.70
2018-07-25T20:02:08.098Z,29.10
2018-07-25T20:07:11.531Z,29.00
2018-07-25T20:17:24.196Z,28.80
2018-07-25T20:22:27.626Z,28.60
2018-07-25T20:27:30.892Z,28.70
2018-07-25T20:32:34.595Z,28.60
2018-07-25T20:37:38.127Z,28.70
2018-07-25T20:42:41.372Z,29.20
2018-07-25T20:47:44.806Z,28.90
2018-07-25T20:52:48.136Z,27.90
2018-07-25T20:57:51.413Z,27.50
2018-07-25T21:02:55.192Z,27.10
2018-07-25T21:07:58.462Z,27.00
2018-07-25T21:13:01.748Z,26.90
2018-07-25T21:18:05.351Z,26.80
2018-07-25T21:23:08.624Z,26.60
2018-07-25T21:28:11.898Z,26.70
2018-07-25T21:33:15.274Z,26.90
2018-07-25T21:38:18.539Z,27.10
2018-07-25T21:43:23.574Z,27.10
2018-07-25T21:48:26.843Z,27.00
2018-07-25T21:53:30.094Z,26.80
2018-07-25T21:58:33.338Z,26.70
2018-07-25T22:03:36.592Z,26.50
2018-07-25T22:08:39.847Z,26.60
2018-07-25T22:13:48.552Z,26.60
2018-07-25T22:18:51.806Z,26.70
2018-07-25T22:23:55.071Z,26.40
2018-07-25T22:28:58.299Z,26.20
2018-07-25T22:34:01.642Z,26.20
2018-07-25T22:39:07.853Z,26.80
2018-07-25T22:44:11.079Z,26.80
2018-07-25T22:49:14.318Z,26.70
2018-07-25T22:54:17.626Z,27.00
2018-07-25T22:59:20.846Z,26.00
2018-07-25T23:04:24.085Z,25.80
2018-07-25T23:09:27.351Z,25.70
2018-07-25T23:14:30.678Z,25.50
2018-07-25T23:19:33.895Z,25.40
2018-07-25T23:24:37.155Z,25.50
2018-07-25T23:29:40.386Z,25.30
2018-07-25T23:34:43.658Z,25.30
2018-07-25T23:39:47.078Z,25.70
2018-07-25T23:44:50.309Z,25.90
2018-07-25T23:49:53.577Z,25.70
2018-07-25T23:54:56.888Z,25.20
